PH-0006 weather

Rancudo Airfield
Palawan Province, Philippines

Public forecast

Using degrees Celsius for public forecast. Weather courtesy of forecast.io.

METAR (pilot weather report)

Closest report is Puerto Princesa Airport, 275.7 nm (510.6 km) ESE. Retrieved 2019/06/19 10:00 UTC (59 minutes ago):

RPVP 191000Z 18002KT 9999 FEW019 SCT080 BKN240 31/25 Q1007 RMK A2974

TAF (pilot weather forecast)

Closest forecast is Puerto Princesa Airport, 275.7 nm (510.6 km) ESE. Retrieved 2019/06/19 06:59 UTC (4 hours ago):

TAF RPVP 190500Z 1906/2006 34004KT 9999 FEW019 SCT250 TEMPO 1906/1912 09008KT FEW017CB BKN080